sensor_id;sensor_type;location;lat;lon;timestamp;pressure;altitude;pressure_sealevel;temperature;humidity
48778;BME280;34578;0.000;0.000;2023-09-07T00:03:09;96922.84;;;21.26;59.96
48778;BME280;34578;0.000;0.000;2023-09-07T00:08:09;96920.34;;;21.22;59.92
48778;BME280;34578;0.000;0.000;2023-09-07T00:13:10;96925.38;;;21.26;60.09
48778;BME280;34578;0.000;0.000;2023-09-07T00:18:10;96917.75;;;21.26;59.92
48778;BME280;34578;0.000;0.000;2023-09-07T00:23:10;96912.66;;;21.26;60.09
48778;BME280;34578;0.000;0.000;2023-09-07T00:28:12;96914.34;;;21.27;60.08
48778;BME280;34578;0.000;0.000;2023-09-07T00:33:12;96908.44;;;21.25;60.07
48778;BME280;34578;0.000;0.000;2023-09-07T00:38:12;96913.53;;;21.25;59.96
48778;BME280;34578;0.000;0.000;2023-09-07T00:43:13;96910.97;;;21.25;60.04
48778;BME280;34578;0.000;0.000;2023-09-07T00:48:15;96910.97;;;21.25;60.04
48778;BME280;34578;0.000;0.000;2023-09-07T00:53:16;96898.25;;;21.24;59.97
48778;BME280;34578;0.000;0.000;2023-09-07T00:58:18;96905.88;;;21.22;59.92
48778;BME280;34578;0.000;0.000;2023-09-07T01:03:19;96911.81;;;21.24;59.98
48778;BME280;34578;0.000;0.000;2023-09-07T01:08:24;96908.44;;;21.24;59.74
48778;BME280;34578;0.000;0.000;2023-09-07T01:13:25;96906.72;;;21.24;59.98
48778;BME280;34578;0.000;0.000;2023-09-07T01:18:26;96902.47;;;21.23;59.99
48778;BME280;34578;0.000;0.000;2023-09-07T01:23:27;96899.94;;;21.23;59.89
48778;BME280;34578;0.000;0.000;2023-09-07T01:28:27;96894.84;;;21.23;59.85
48778;BME280;34578;0.000;0.000;2023-09-07T01:33:28;96881.28;;;21.23;59.95
48778;BME280;34578;0.000;0.000;2023-09-07T01:38:28;96887.19;;;21.23;59.80
48778;BME280;34578;0.000;0.000;2023-09-07T01:43:28;96880.41;;;21.25;59.99
48778;BME280;34578;0.000;0.000;2023-09-07T01:48:29;96886.34;;;21.24;59.78
48778;BME280;34578;0.000;0.000;2023-09-07T01:53:29;96884.66;;;21.25;59.70
48778;BME280;34578;0.000;0.000;2023-09-07T01:58:29;96880.41;;;21.22;59.87
48778;BME280;34578;0.000;0.000;2023-09-07T02:03:30;96882.09;;;21.23;59.74
48778;BME280;34578;0.000;0.000;2023-09-07T02:08:30;96881.25;;;21.24;59.75
48778;BME280;34578;0.000;0.000;2023-09-07T02:13:31;96868.50;;;21.24;59.75
48778;BME280;34578;0.000;0.000;2023-09-07T02:18:32;96881.25;;;21.24;59.76
48778;BME280;34578;0.000;0.000;2023-09-07T02:23:33;96871.09;;;21.23;59.82
48778;BME280;34578;0.000;0.000;2023-09-07T02:28:33;96881.25;;;21.24;59.91
48778;BME280;34578;0.000;0.000;2023-09-07T02:33:34;96877.00;;;21.23;59.70
48778;BME280;34578;0.000;0.000;2023-09-07T02:38:35;96873.63;;;21.23;59.70
48778;BME280;34578;0.000;0.000;2023-09-07T02:43:36;96869.38;;;21.23;59.82
48778;BME280;34578;0.000;0.000;2023-09-07T02:48:36;96880.41;;;21.24;59.84
48778;BME280;34578;0.000;0.000;2023-09-07T02:53:37;96872.78;;;21.24;59.70
48778;BME280;34578;0.000;0.000;2023-09-07T02:58:37;96872.78;;;21.25;59.77
48778;BME280;34578;0.000;0.000;2023-09-07T03:03:38;96873.59;;;21.24;59.90
48778;BME280;34578;0.000;0.000;2023-09-07T03:08:42;96868.50;;;21.24;59.70
48778;BME280;34578;0.000;0.000;2023-09-07T03:13:43;96867.69;;;21.25;59.82
48778;BME280;34578;0.000;0.000;2023-09-07T03:18:44;96866.81;;;21.25;59.67
48778;BME280;34578;0.000;0.000;2023-09-07T03:23:45;96862.59;;;21.25;59.67
48778;BME280;34578;0.000;0.000;2023-09-07T03:28:47;96866.81;;;21.23;59.31
48778;BME280;34578;0.000;0.000;2023-09-07T03:33:48;96871.91;;;21.23;59.69
48778;BME280;34578;0.000;0.000;2023-09-07T03:38:49;96865.13;;;21.22;59.98
48778;BME280;34578;0.000;0.000;2023-09-07T03:43:50;96871.09;;;21.23;59.82
48778;BME280;34578;0.000;0.000;2023-09-07T03:48:53;96871.91;;;21.23;59.34
48778;BME280;34578;0.000;0.000;2023-09-07T03:53:53;96871.91;;;21.23;59.64
48778;BME280;34578;0.000;0.000;2023-09-07T03:58:54;96877.88;;;21.24;59.75
48778;BME280;34578;0.000;0.000;2023-09-07T04:03:54;96871.91;;;21.23;59.82
48778;BME280;34578;0.000;0.000;2023-09-07T04:08:55;96873.59;;;21.24;59.81
48778;BME280;34578;0.000;0.000;2023-09-07T04:13:55;96877.00;;;21.26;59.97
48778;BME280;34578;0.000;0.000;2023-09-07T04:18:56;96880.34;;;21.31;59.50
48778;BME280;34578;0.000;0.000;2023-09-07T04:23:57;96879.47;;;21.34;59.32
48778;BME280;34578;0.000;0.000;2023-09-07T04:28:57;96872.69;;;21.34;59.42
48778;BME280;34578;0.000;0.000;2023-09-07T04:33:58;96871.00;;;21.32;59.24
48778;BME280;34578;0.000;0.000;2023-09-07T04:38:58;96876.91;;;21.35;59.84
48778;BME280;34578;0.000;0.000;2023-09-07T04:43:59;96877.84;;;21.27;59.19
48778;BME280;34578;0.000;0.000;2023-09-07T04:48:59;96880.41;;;21.22;59.70
48778;BME280;34578;0.000;0.000;2023-09-07T04:54:00;96879.56;;;21.25;59.60
48778;BME280;34578;0.000;0.000;2023-09-07T04:59:00;96884.66;;;21.26;59.61
48778;BME280;34578;0.000;0.000;2023-09-07T05:04:01;96888.06;;;21.25;59.44
48778;BME280;34578;0.000;0.000;2023-09-07T05:09:04;96893.19;;;21.21;59.13
48778;BME280;34578;0.000;0.000;2023-09-07T05:14:04;96883.81;;;21.21;59.36
48778;BME280;34578;0.000;0.000;2023-09-07T05:19:05;96892.28;;;21.23;59.35
48778;BME280;34578;0.000;0.000;2023-09-07T05:24:05;96887.31;;;21.10;59.84
48778;BME280;34578;0.000;0.000;2023-09-07T05:29:06;96906.81;;;21.12;59.59
48778;BME280;34578;0.000;0.000;2023-09-07T05:34:06;96906.81;;;21.11;59.60
48778;BME280;34578;0.000;0.000;2023-09-07T05:39:07;96910.25;;;21.08;59.48
48778;BME280;34578;0.000;0.000;2023-09-07T05:44:07;96906.81;;;21.12;59.00
48778;BME280;34578;0.000;0.000;2023-09-07T05:49:08;96905.09;;;21.16;59.00
48778;BME280;34578;0.000;0.000;2023-09-07T05:54:09;96906.78;;;21.18;59.06
48778;BME280;34578;0.000;0.000;2023-09-07T05:59:10;96909.31;;;21.18;59.00
48778;BME280;34578;0.000;0.000;2023-09-07T06:04:10;96907.59;;;21.20;58.94
48778;BME280;34578;0.000;0.000;2023-09-07T06:09:11;96909.28;;;21.23;58.94
48778;BME280;34578;0.000;0.000;2023-09-07T06:14:12;96908.44;;;21.22;59.09
48778;BME280;34578;0.000;0.000;2023-09-07T06:19:13;96904.16;;;21.24;59.17
48778;BME280;34578;0.000;0.000;2023-09-07T06:24:14;96898.25;;;21.24;59.52
48778;BME280;34578;0.000;0.000;2023-09-07T06:29:15;96904.16;;;21.24;59.33
48778;BME280;34578;0.000;0.000;2023-09-07T06:34:16;96902.44;;;21.29;59.51
48778;BME280;34578;0.000;0.000;2023-09-07T06:39:16;96903.25;;;21.33;59.00
48778;BME280;34578;0.000;0.000;2023-09-07T06:44:17;96899.06;;;21.26;59.09
48778;BME280;34578;0.000;0.000;2023-09-07T06:49:18;96899.88;;;21.28;59.49
48778;BME280;34578;0.000;0.000;2023-09-07T06:54:19;96899.84;;;21.32;59.52
48778;BME280;34578;0.000;0.000;2023-09-07T06:59:19;96910.00;;;21.38;59.75
48778;BME280;34578;0.000;0.000;2023-09-07T07:04:20;96919.31;;;21.42;59.11
48778;BME280;34578;0.000;0.000;2023-09-07T07:09:20;96913.41;;;21.36;59.35
48778;BME280;34578;0.000;0.000;2023-09-07T07:14:21;96914.31;;;21.30;59.43
48778;BME280;34578;0.000;0.000;2023-09-07T07:19:22;96910.94;;;21.28;59.44
48778;BME280;34578;0.000;0.000;2023-09-07T07:24:23;96911.78;;;21.29;59.07
48778;BME280;34578;0.000;0.000;2023-09-07T07:29:24;96914.34;;;21.29;59.36
48778;BME280;34578;0.000;0.000;2023-09-07T07:34:25;96919.38;;;21.35;60.70
48778;BME280;34578;0.000;0.000;2023-09-07T07:39:25;96917.69;;;21.32;60.35
48778;BME280;34578;0.000;0.000;2023-09-07T07:44:26;96908.38;;;21.30;59.84
48778;BME280;34578;0.000;0.000;2023-09-07T07:49:27;96914.34;;;21.27;59.53
48778;BME280;34578;0.000;0.000;2023-09-07T07:54:28;96910.94;;;21.28;59.33
48778;BME280;34578;0.000;0.000;2023-09-07T07:59:30;96917.75;;;21.26;59.61
48778;BME280;34578;0.000;0.000;2023-09-07T08:04:31;96914.34;;;21.27;59.53
48778;BME280;34578;0.000;0.000;2023-09-07T08:09:32;96918.56;;;21.28;59.83
48778;BME280;34578;0.000;0.000;2023-09-07T08:14:33;96921.13;;;21.28;59.93
48778;BME280;34578;0.000;0.000;2023-09-07T08:19:36;96926.22;;;21.28;59.93
48778;BME280;34578;0.000;0.000;2023-09-07T08:24:38;96930.44;;;21.28;60.08
48778;BME280;34578;0.000;0.000;2023-09-07T08:29:40;96928.75;;;21.27;59.88
48778;BME280;34578;0.000;0.000;2023-09-07T08:34:40;96927.91;;;21.29;60.07
48778;BME280;34578;0.000;0.000;2023-09-07T08:39:42;96927.94;;;21.26;60.67
48778;BME280;34578;0.000;0.000;2023-09-07T08:44:44;96930.34;;;21.41;61.19
48778;BME280;34578;0.000;0.000;2023-09-07T08:49:47;96915.06;;;21.46;60.23
48778;BME280;34578;0.000;0.000;2023-09-07T08:54:48;96920.94;;;21.49;63.10
48778;BME280;34578;0.000;0.000;2023-09-07T08:59:49;96927.66;;;21.56;63.01
48778;BME280;34578;0.000;0.000;2023-09-07T09:04:50;96926.06;;;21.46;63.01
48778;BME280;34578;0.000;0.000;2023-09-07T09:09:50;96925.28;;;21.40;62.48
48778;BME280;34578;0.000;0.000;2023-09-07T09:14:51;96931.25;;;21.37;61.87
48778;BME280;34578;0.000;0.000;2023-09-07T09:19:52;96937.19;;;21.36;61.60
48778;BME280;34578;0.000;0.000;2023-09-07T09:24:53;96928.69;;;21.37;61.63
48778;BME280;34578;0.000;0.000;2023-09-07T09:29:53;96926.19;;;21.34;61.78
48778;BME280;34578;0.000;0.000;2023-09-07T09:34:54;96924.47;;;21.35;62.12
48778;BME280;34578;0.000;0.000;2023-09-07T09:39:55;96917.69;;;21.34;61.48
48778;BME280;34578;0.000;0.000;2023-09-07T09:44:57;96921.91;;;21.35;61.48
48778;BME280;34578;0.000;0.000;2023-09-07T09:50:02;96916.00;;;21.34;61.42
48778;BME280;34578;0.000;0.000;2023-09-07T09:55:07;96906.63;;;21.35;61.23
48778;BME280;34578;0.000;0.000;2023-09-07T10:00:08;96900.72;;;21.33;61.23
48778;BME280;34578;0.000;0.000;2023-09-07T10:05:35;96898.16;;;21.33;61.10
48778;BME280;34578;0.000;0.000;2023-09-07T10:10:36;96888.84;;;21.33;61.15
48778;BME280;34578;0.000;0.000;2023-09-07T10:15:37;96888.84;;;21.33;61.08
48778;BME280;34578;0.000;0.000;2023-09-07T10:20:55;96888.84;;;21.32;60.86
48778;BME280;34578;0.000;0.000;2023-09-07T10:25:58;96885.44;;;21.34;61.04
48778;BME280;34578;0.000;0.000;2023-09-07T10:31:12;96876.09;;;21.33;61.58
48778;BME280;34578;0.000;0.000;2023-09-07T10:36:23;96889.66;;;21.34;61.71
48778;BME280;34578;0.000;0.000;2023-09-07T10:41:24;96873.59;;;21.27;61.66
48778;BME280;34578;0.000;0.000;2023-09-07T10:46:24;96879.47;;;21.32;61.11
48778;BME280;34578;0.000;0.000;2023-09-07T10:51:26;96877.78;;;21.33;60.78
48778;BME280;34578;0.000;0.000;2023-09-07T10:56:26;96866.75;;;21.32;60.69
48778;BME280;34578;0.000;0.000;2023-09-07T11:01:27;96871.84;;;21.32;60.74
48778;BME280;34578;0.000;0.000;2023-09-07T11:06:27;96865.06;;;21.33;60.65
48778;BME280;34578;0.000;0.000;2023-09-07T11:11:28;96861.66;;;21.32;60.63
48778;BME280;34578;0.000;0.000;2023-09-07T11:16:28;96863.38;;;21.33;60.94
48778;BME280;34578;0.000;0.000;2023-09-07T11:21:29;96863.38;;;21.33;60.77
48778;BME280;34578;0.000;0.000;2023-09-07T11:26:43;96855.69;;;21.35;60.94
48778;BME280;34578;0.000;0.000;2023-09-07T11:31:44;96854.81;;;21.36;60.88
48778;BME280;34578;0.000;0.000;2023-09-07T11:36:46;96853.13;;;21.35;60.84
48778;BME280;34578;0.000;0.000;2023-09-07T11:41:46;96848.91;;;21.34;60.82
48778;BME280;34578;0.000;0.000;2023-09-07T11:46:47;96845.53;;;21.33;60.72
48778;BME280;34578;0.000;0.000;2023-09-07T11:51:47;96849.72;;;21.36;60.77
48778;BME280;34578;0.000;0.000;2023-09-07T11:56:48;96840.41;;;21.36;61.40
48778;BME280;34578;0.000;0.000;2023-09-07T12:01:48;96842.13;;;21.34;60.99
48778;BME280;34578;0.000;0.000;2023-09-07T12:06:51;96837.84;;;21.36;61.33
48778;BME280;34578;0.000;0.000;2023-09-07T12:11:51;96846.34;;;21.35;60.26
48778;BME280;34578;0.000;0.000;2023-09-07T12:16:51;96830.22;;;21.35;61.03
48778;BME280;34578;0.000;0.000;2023-09-07T12:21:52;96831.91;;;21.36;60.77
48778;BME280;34578;0.000;0.000;2023-09-07T12:26:52;96826.81;;;21.36;60.72
48778;BME280;34578;0.000;0.000;2023-09-07T12:31:54;96829.34;;;21.37;61.27
48778;BME280;34578;0.000;0.000;2023-09-07T12:36:54;96820.84;;;21.37;60.86
48778;BME280;34578;0.000;0.000;2023-09-07T12:41:54;96825.97;;;21.35;60.69
48778;BME280;34578;0.000;0.000;2023-09-07T12:46:55;96818.31;;;21.38;61.52
48778;BME280;34578;0.000;0.000;2023-09-07T12:51:56;96822.53;;;21.39;61.11
48778;BME280;34578;0.000;0.000;2023-09-07T12:56:56;96819.16;;;21.39;61.12
48778;BME280;34578;0.000;0.000;2023-09-07T13:01:56;96817.44;;;21.39;61.83
48778;BME280;34578;0.000;0.000;2023-09-07T13:06:57;96815.72;;;21.41;61.83
48778;BME280;34578;0.000;0.000;2023-09-07T13:11:57;96816.56;;;21.40;61.93
48778;BME280;34578;0.000;0.000;2023-09-07T13:16:57;96815.75;;;21.38;61.13
48778;BME280;34578;0.000;0.000;2023-09-07T13:21:58;96805.56;;;21.38;60.93
48778;BME280;34578;0.000;0.000;2023-09-07T13:26:58;96801.34;;;21.39;61.35
48778;BME280;34578;0.000;0.000;2023-09-07T13:31:59;96797.09;;;21.38;61.35
48778;BME280;34578;0.000;0.000;2023-09-07T13:37:00;96792.00;;;21.36;61.30
48778;BME280;34578;0.000;0.000;2023-09-07T13:42:00;96793.66;;;21.40;61.54
48778;BME280;34578;0.000;0.000;2023-09-07T13:47:00;96791.16;;;21.39;61.50
48778;BME280;34578;0.000;0.000;2023-09-07T13:52:01;96793.66;;;21.40;60.96
48778;BME280;34578;0.000;0.000;2023-09-07T13:57:01;96797.06;;;21.39;61.70
48778;BME280;34578;0.000;0.000;2023-09-07T14:02:02;96793.66;;;21.40;61.59
48778;BME280;34578;0.000;0.000;2023-09-07T14:07:02;96785.19;;;21.40;61.33
48778;BME280;34578;0.000;0.000;2023-09-07T14:12:03;96792.78;;;21.41;61.41
48778;BME280;34578;0.000;0.000;2023-09-07T14:17:03;96793.66;;;21.40;61.54
48778;BME280;34578;0.000;0.000;2023-09-07T14:22:04;96787.72;;;21.40;61.03
48778;BME280;34578;0.000;0.000;2023-09-07T14:27:04;96793.66;;;21.40;61.07
48778;BME280;34578;0.000;0.000;2023-09-07T14:32:05;96798.75;;;21.40;61.12
48778;BME280;34578;0.000;0.000;2023-09-07T14:37:05;96803.00;;;21.40;61.04
48778;BME280;34578;0.000;0.000;2023-09-07T14:42:06;96800.44;;;21.41;61.47
48778;BME280;34578;0.000;0.000;2023-09-07T14:47:11;96796.19;;;21.40;60.97
48778;BME280;34578;0.000;0.000;2023-09-07T14:52:12;96802.16;;;21.42;62.07
48778;BME280;34578;0.000;0.000;2023-09-07T14:57:12;96799.59;;;21.42;61.24
48778;BME280;34578;0.000;0.000;2023-09-07T15:02:12;96784.31;;;21.41;61.03
48778;BME280;34578;0.000;0.000;2023-09-07T15:07:13;96791.16;;;21.39;61.11
48778;BME280;34578;0.000;0.000;2023-09-07T15:12:13;96793.66;;;21.42;61.30
48778;BME280;34578;0.000;0.000;2023-09-07T15:17:15;96790.25;;;21.41;61.05
48778;BME280;34578;0.000;0.000;2023-09-07T15:22:15;96790.25;;;21.41;61.00
48778;BME280;34578;0.000;0.000;2023-09-07T15:27:16;96791.97;;;21.42;61.46
48778;BME280;34578;0.000;0.000;2023-09-07T15:32:16;96776.72;;;21.36;61.09
48778;BME280;34578;0.000;0.000;2023-09-07T15:37:16;96780.06;;;21.41;61.25
48778;BME280;34578;0.000;0.000;2023-09-07T15:42:17;96785.16;;;21.41;61.08
48778;BME280;34578;0.000;0.000;2023-09-07T15:47:17;96780.06;;;21.41;61.26
48778;BME280;34578;0.000;0.000;2023-09-07T15:52:18;96788.56;;;21.42;61.08
48778;BME280;34578;0.000;0.000;2023-09-07T15:57:19;96786.00;;;21.42;60.87
48778;BME280;34578;0.000;0.000;2023-09-07T16:02:19;96791.09;;;21.42;60.96
48778;BME280;34578;0.000;0.000;2023-09-07T16:07:20;96786.88;;;21.42;61.31
48778;BME280;34578;0.000;0.000;2023-09-07T16:12:20;96791.09;;;21.42;61.05
48778;BME280;34578;0.000;0.000;2023-09-07T16:17:23;96787.69;;;21.43;61.44
48778;BME280;34578;0.000;0.000;2023-09-07T16:22:23;96786.00;;;21.42;61.58
48778;BME280;34578;0.000;0.000;2023-09-07T16:27:24;96781.75;;;21.42;61.09
48778;BME280;34578;0.000;0.000;2023-09-07T16:32:24;96782.59;;;21.41;61.03
48778;BME280;34578;0.000;0.000;2023-09-07T16:37:25;96782.59;;;21.41;61.25
48778;BME280;34578;0.000;0.000;2023-09-07T16:42:26;96786.00;;;21.40;60.81
48778;BME280;34578;0.000;0.000;2023-09-07T16:47:29;96790.25;;;21.41;61.64
48778;BME280;34578;0.000;0.000;2023-09-07T16:52:29;96795.34;;;21.41;60.94
48778;BME280;34578;0.000;0.000;2023-09-07T16:57:32;96793.66;;;21.40;61.06
48778;BME280;34578;0.000;0.000;2023-09-07T17:02:34;96792.78;;;21.41;60.93
48778;BME280;34578;0.000;0.000;2023-09-07T17:07:35;96795.34;;;21.41;61.04
48778;BME280;34578;0.000;0.000;2023-09-07T17:12:35;96797.88;;;21.41;61.30
48778;BME280;34578;0.000;0.000;2023-09-07T17:17:35;96795.34;;;21.41;60.88
48778;BME280;34578;0.000;0.000;2023-09-07T17:22:36;96797.91;;;21.40;60.95
48778;BME280;34578;0.000;0.000;2023-09-07T17:27:36;96802.97;;;21.41;62.81
48778;BME280;34578;0.000;0.000;2023-09-07T17:32:37;96803.84;;;21.40;60.95
48778;BME280;34578;0.000;0.000;2023-09-07T17:37:38;96808.94;;;21.40;60.91
48778;BME280;34578;0.000;0.000;2023-09-07T17:42:40;96815.72;;;21.41;61.10
48778;BME280;34578;0.000;0.000;2023-09-07T17:47:41;96818.25;;;21.41;60.95
48778;BME280;34578;0.000;0.000;2023-09-07T17:52:42;96816.56;;;21.42;61.07
48778;BME280;34578;0.000;0.000;2023-09-07T17:57:42;96818.25;;;21.41;60.85
48778;BME280;34578;0.000;0.000;2023-09-07T18:02:42;96828.44;;;21.44;63.00
48778;BME280;34578;0.000;0.000;2023-09-07T18:07:43;96827.56;;;21.45;61.92
48778;BME280;34578;0.000;0.000;2023-09-07T18:12:43;96828.47;;;21.40;61.63
48778;BME280;34578;0.000;0.000;2023-09-07T18:17:43;96829.31;;;21.43;61.26
48778;BME280;34578;0.000;0.000;2023-09-07T18:22:44;96837.81;;;21.42;61.16
48778;BME280;34578;0.000;0.000;2023-09-07T18:27:45;96843.72;;;21.41;61.24
48778;BME280;34578;0.000;0.000;2023-09-07T18:32:46;96853.09;;;21.42;60.99
48778;BME280;34578;0.000;0.000;2023-09-07T18:37:48;96855.63;;;21.41;64.66
48778;BME280;34578;0.000;0.000;2023-09-07T18:42:48;96858.19;;;21.42;61.96
48778;BME280;34578;0.000;0.000;2023-09-07T18:47:49;96859.00;;;21.43;61.56
48778;BME280;34578;0.000;0.000;2023-09-07T18:52:50;96849.69;;;21.42;61.50
48778;BME280;34578;0.000;0.000;2023-09-07T18:57:51;96853.91;;;21.43;61.33
48778;BME280;34578;0.000;0.000;2023-09-07T19:02:52;96850.53;;;21.42;61.33
48778;BME280;34578;0.000;0.000;2023-09-07T19:07:52;96856.47;;;21.41;61.09
48778;BME280;34578;0.000;0.000;2023-09-07T19:12:53;96856.47;;;21.41;61.55
48778;BME280;34578;0.000;0.000;2023-09-07T19:17:53;96846.34;;;21.35;61.41
48778;BME280;34578;0.000;0.000;2023-09-07T19:22:53;96856.50;;;21.40;60.65
48778;BME280;34578;0.000;0.000;2023-09-07T19:27:54;96854.78;;;21.40;61.19
48778;BME280;34578;0.000;0.000;2023-09-07T19:32:55;96856.47;;;21.41;62.02
48778;BME280;34578;0.000;0.000;2023-09-07T19:37:55;96856.47;;;21.41;60.96
48778;BME280;34578;0.000;0.000;2023-09-07T19:42:56;96855.63;;;21.42;61.08
48778;BME280;34578;0.000;0.000;2023-09-07T19:47:56;96864.09;;;21.43;60.92
48778;BME280;34578;0.000;0.000;2023-09-07T19:52:56;96856.47;;;21.43;61.05
48778;BME280;34578;0.000;0.000;2023-09-07T19:57:57;96865.81;;;21.42;60.82
48778;BME280;34578;0.000;0.000;2023-09-07T20:02:57;96864.97;;;21.42;60.86
48778;BME280;34578;0.000;0.000;2023-09-07T20:07:58;96866.66;;;21.41;60.85
48778;BME280;34578;0.000;0.000;2023-09-07T20:12:58;96870.06;;;21.43;61.85
48778;BME280;34578;0.000;0.000;2023-09-07T20:17:58;96872.56;;;21.48;61.80
48778;BME280;34578;0.000;0.000;2023-09-07T20:22:59;96863.25;;;21.45;61.57
48778;BME280;34578;0.000;0.000;2023-09-07T20:28:00;96862.38;;;21.45;61.54
48778;BME280;34578;0.000;0.000;2023-09-07T20:33:01;96868.34;;;21.45;61.35
48778;BME280;34578;0.000;0.000;2023-09-07T20:38:01;96861.56;;;21.41;61.48
48778;BME280;34578;0.000;0.000;2023-09-07T20:43:03;96871.75;;;21.44;61.27
48778;BME280;34578;0.000;0.000;2023-09-07T20:48:06;96861.56;;;21.44;61.17
48778;BME280;34578;0.000;0.000;2023-09-07T20:53:09;96853.06;;;21.45;61.07
48778;BME280;34578;0.000;0.000;2023-09-07T20:58:10;96854.81;;;21.36;64.27
48778;BME280;34578;0.000;0.000;2023-09-07T21:03:10;96860.66;;;21.48;62.89
48778;BME280;34578;0.000;0.000;2023-09-07T21:08:11;96858.09;;;21.48;62.54
48778;BME280;34578;0.000;0.000;2023-09-07T21:13:12;96862.38;;;21.46;62.03
48778;BME280;34578;0.000;0.000;2023-09-07T21:18:12;96857.28;;;21.45;61.89
48778;BME280;34578;0.000;0.000;2023-09-07T21:23:13;96856.47;;;21.41;61.43
48778;BME280;34578;0.000;0.000;2023-09-07T21:28:13;96869.19;;;21.44;61.45
48778;BME280;34578;0.000;0.000;2023-09-07T21:33:14;96859.88;;;21.40;61.51
48778;BME280;34578;0.000;0.000;2023-09-07T21:38:14;96870.88;;;21.44;61.46
48778;BME280;34578;0.000;0.000;2023-09-07T21:43:15;96870.88;;;21.45;61.61
48778;BME280;34578;0.000;0.000;2023-09-07T21:48:15;96868.34;;;21.45;61.65
48778;BME280;34578;0.000;0.000;2023-09-07T21:53:16;96867.47;;;21.48;61.56
48778;BME280;34578;0.000;0.000;2023-09-07T21:58:16;96865.78;;;21.47;61.64
48778;BME280;34578;0.000;0.000;2023-09-07T22:03:16;96866.59;;;21.47;61.48
48778;BME280;34578;0.000;0.000;2023-09-07T22:08:17;96868.34;;;21.45;61.56
48778;BME280;34578;0.000;0.000;2023-09-07T22:13:17;96864.06;;;21.47;61.63
48778;BME280;34578;0.000;0.000;2023-09-07T22:18:20;96863.25;;;21.47;61.49
48778;BME280;34578;0.000;0.000;2023-09-07T22:23:20;96861.56;;;21.44;61.23
48778;BME280;34578;0.000;0.000;2023-09-07T22:28:21;96857.31;;;21.43;61.06
48778;BME280;34578;0.000;0.000;2023-09-07T22:33:21;96860.72;;;21.42;61.12
48778;BME280;34578;0.000;0.000;2023-09-07T22:38:22;96860.72;;;21.42;61.16
48778;BME280;34578;0.000;0.000;2023-09-07T22:43:23;96852.25;;;21.40;60.99
48778;BME280;34578;0.000;0.000;2023-09-07T22:48:24;96846.28;;;21.44;61.12
48778;BME280;34578;0.000;0.000;2023-09-07T22:53:25;96850.50;;;21.47;61.10
48778;BME280;34578;0.000;0.000;2023-09-07T22:58:25;96853.00;;;21.48;61.66
48778;BME280;34578;0.000;0.000;2023-09-07T23:03:26;96846.22;;;21.47;61.19
48778;BME280;34578;0.000;0.000;2023-09-07T23:08:26;96850.50;;;21.47;61.63
48778;BME280;34578;0.000;0.000;2023-09-07T23:13:31;96856.41;;;21.47;61.12
48778;BME280;34578;0.000;0.000;2023-09-07T23:18:35;96853.06;;;21.45;61.05
48778;BME280;34578;0.000;0.000;2023-09-07T23:23:35;96848.78;;;21.47;61.80
48778;BME280;34578;0.000;0.000;2023-09-07T23:28:37;96855.59;;;21.47;61.10
48778;BME280;34578;0.000;0.000;2023-09-07T23:33:37;96851.38;;;21.44;60.68
48778;BME280;34578;0.000;0.000;2023-09-07T23:38:38;96853.06;;;21.45;61.36
48778;BME280;34578;0.000;0.000;2023-09-07T23:43:39;96854.72;;;21.46;61.38
48778;BME280;34578;0.000;0.000;2023-09-07T23:48:41;96862.38;;;21.48;61.45
48778;BME280;34578;0.000;0.000;2023-09-07T23:53:41;96858.97;;;21.47;61.32
48778;BME280;34578;0.000;0.000;2023-09-07T23:58:41;96864.94;;;21.46;61.03
